createdAt,value
2019-05-11T00:00:12.799Z,0.00
2019-05-11T00:02:05.611Z,0.00
2019-05-11T00:03:05.553Z,0.00
2019-05-11T00:04:58.402Z,0.00
2019-05-11T00:05:58.553Z,0.00
2019-05-11T00:07:50.129Z,0.00
2019-05-11T00:08:50.060Z,0.00
2019-05-11T00:10:41.907Z,0.00
2019-05-11T00:11:41.822Z,0.00
2019-05-11T00:13:34.666Z,0.00
2019-05-11T00:14:34.558Z,0.00
2019-05-11T00:16:27.473Z,0.00
2019-05-11T00:17:27.320Z,0.00
2019-05-11T00:19:19.332Z,0.00
2019-05-11T00:20:19.238Z,0.00
2019-05-11T00:22:12.134Z,0.00
2019-05-11T00:23:11.972Z,0.00
2019-05-11T00:25:03.813Z,0.00
2019-05-11T00:26:03.711Z,0.00
2019-05-11T00:27:56.579Z,0.00
2019-05-11T00:28:56.450Z,0.00
2019-05-11T00:30:48.292Z,0.00
2019-05-11T00:31:48.213Z,0.00
2019-05-11T00:33:40.031Z,0.00
2019-05-11T00:34:39.959Z,0.00
2019-05-11T00:36:32.901Z,0.00
2019-05-11T00:37:32.828Z,0.00
2019-05-11T00:39:24.688Z,0.00
2019-05-11T00:40:24.601Z,0.00
2019-05-11T00:42:16.381Z,0.00
2019-05-11T00:43:16.276Z,0.00
2019-05-11T00:45:08.044Z,0.00
2019-05-11T00:46:08.080Z,0.00
2019-05-11T00:48:00.107Z,0.00
2019-05-11T00:48:59.868Z,0.00
2019-05-11T00:50:51.763Z,0.00
2019-05-11T00:51:51.645Z,0.00
2019-05-11T00:53:44.487Z,0.00
2019-05-11T00:54:44.389Z,0.00
2019-05-11T00:56:37.094Z,0.00
2019-05-11T00:57:36.173Z,0.00
2019-05-11T00:59:27.935Z,0.00
2019-05-11T01:00:27.921Z,0.00
2019-05-11T01:02:20.840Z,0.00
2019-05-11T01:03:20.640Z,0.00
2019-05-11T01:05:13.510Z,0.00
2019-05-11T01:06:13.359Z,0.00
2019-05-11T01:08:05.255Z,0.00
2019-05-11T01:09:05.181Z,0.00
2019-05-11T01:10:57.967Z,0.00
2019-05-11T01:11:57.879Z,0.00
2019-05-11T01:13:50.671Z,0.00
2019-05-11T01:14:50.593Z,0.00
2019-05-11T01:16:43.398Z,0.00
2019-05-11T01:17:43.350Z,0.00
2019-05-11T01:19:35.359Z,0.00
2019-05-11T01:20:35.040Z,0.00
2019-05-11T01:22:27.001Z,0.00
2019-05-11T01:23:26.918Z,0.00
2019-05-11T01:25:19.739Z,0.00
2019-05-11T01:26:19.615Z,0.00
2019-05-11T01:28:12.404Z,0.00
2019-05-11T01:29:12.335Z,0.00
2019-05-11T01:31:04.214Z,0.00
2019-05-11T01:32:04.082Z,0.00
2019-05-11T01:33:55.946Z,0.00
2019-05-11T01:34:55.948Z,0.00
2019-05-11T01:36:47.808Z,0.00
2019-05-11T01:37:47.747Z,0.00
2019-05-11T01:39:40.475Z,0.00
2019-05-11T01:40:40.414Z,0.00
2019-05-11T01:42:33.211Z,0.00
2019-05-11T01:43:33.180Z,0.00
2019-05-11T01:45:25.908Z,0.00
2019-05-11T01:46:25.836Z,0.00
2019-05-11T01:48:18.709Z,0.00
2019-05-11T01:49:18.778Z,0.00
2019-05-11T01:51:10.504Z,0.00
2019-05-11T01:52:10.358Z,0.00
2019-05-11T01:55:45.780Z,0.00
2019-05-11T01:56:45.743Z,0.00
2019-05-11T01:58:37.648Z,0.00
2019-05-11T01:59:37.593Z,0.00
2019-05-11T02:01:29.457Z,0.00
2019-05-11T02:02:29.223Z,0.00
2019-05-11T02:04:22.125Z,0.00
2019-05-11T02:05:22.190Z,0.00
2019-05-11T02:07:13.971Z,0.00
2019-05-11T02:08:13.900Z,0.00
2019-05-11T02:10:05.715Z,0.00
2019-05-11T02:11:15.337Z,0.00
2019-05-11T02:12:58.349Z,0.00
2019-05-11T02:13:58.284Z,0.00
2019-05-11T02:15:51.112Z,0.00
2019-05-11T02:16:50.980Z,0.00
2019-05-11T02:18:43.836Z,0.00
2019-05-11T02:19:43.729Z,0.00
2019-05-11T02:21:35.675Z,0.00
2019-05-11T02:22:35.545Z,0.00
2019-05-11T02:24:28.303Z,0.00
2019-05-11T02:25:28.243Z,0.00
2019-05-11T02:27:21.109Z,0.00
2019-05-11T02:28:21.054Z,0.00
2019-05-11T02:30:13.825Z,0.00
2019-05-11T02:31:13.752Z,0.00
2019-05-11T02:33:05.493Z,0.00
2019-05-11T02:34:05.422Z,0.00
2019-05-11T02:35:57.362Z,0.00
2019-05-11T02:36:57.170Z,0.00
2019-05-11T02:38:49.107Z,0.00
2019-05-11T02:39:48.931Z,0.00
2019-05-11T02:41:41.812Z,0.00
2019-05-11T02:42:41.788Z,0.00
2019-05-11T02:44:34.660Z,4.00
2019-05-11T02:45:34.509Z,4.00
2019-05-11T02:47:27.342Z,0.00
2019-05-11T02:48:27.230Z,4.00
2019-05-11T02:50:20.081Z,4.00
2019-05-11T02:51:20.002Z,4.00
2019-05-11T02:53:11.822Z,8.00
2019-05-11T02:54:11.761Z,8.00
2019-05-11T02:56:03.683Z,4.00
2019-05-11T02:57:03.571Z,8.00
2019-05-11T02:58:55.546Z,12.00
2019-05-11T02:59:55.318Z,12.00
2019-05-11T03:01:47.171Z,16.00
2019-05-11T03:02:47.082Z,20.00
2019-05-11T03:04:38.817Z,24.00
2019-05-11T03:05:38.791Z,24.00
2019-05-11T03:07:31.564Z,32.00
2019-05-11T03:08:31.553Z,32.00
2019-05-11T03:10:23.223Z,40.00
2019-05-11T03:11:23.163Z,48.00
2019-05-11T03:13:15.989Z,52.00
2019-05-11T03:14:15.909Z,56.00
2019-05-11T03:16:07.993Z,68.00
2019-05-11T03:17:07.711Z,76.00
2019-05-11T03:19:00.469Z,88.00
2019-05-11T03:20:00.457Z,100.00
2019-05-11T03:21:53.224Z,112.00
2019-05-11T03:22:53.289Z,120.00
2019-05-11T03:24:46.006Z,140.00
2019-05-11T03:25:45.879Z,152.00
2019-05-11T03:27:38.770Z,176.00
2019-05-11T03:28:38.767Z,188.00
2019-05-11T03:30:30.647Z,228.00
2019-05-11T03:31:30.428Z,252.00
2019-05-11T03:33:23.353Z,304.00
2019-05-11T03:34:23.123Z,324.00
2019-05-11T03:36:14.983Z,340.00
2019-05-11T03:37:14.798Z,348.00
2019-05-11T03:39:06.677Z,376.00
2019-05-11T03:40:06.566Z,388.00
2019-05-11T03:42:13.352Z,400.00
2019-05-11T03:42:58.378Z,408.00
2019-05-11T03:44:50.303Z,428.00
2019-05-11T03:45:50.242Z,452.00
2019-05-11T03:47:42.143Z,484.00
2019-05-11T03:48:42.031Z,464.00
2019-05-11T03:50:34.847Z,404.00
2019-05-11T03:51:34.759Z,408.00
2019-05-11T03:53:27.787Z,372.00
2019-05-11T03:54:27.524Z,352.00
2019-05-11T03:56:21.207Z,376.00
2019-05-11T03:57:21.128Z,388.00
2019-05-11T03:59:13.082Z,416.00
2019-05-11T04:00:12.860Z,408.00
2019-05-11T04:02:04.665Z,368.00
2019-05-11T04:03:04.547Z,364.00
2019-05-11T04:04:57.345Z,352.00
2019-05-11T04:05:57.244Z,352.00
2019-05-11T04:07:49.141Z,352.00
2019-05-11T04:08:49.086Z,352.00
2019-05-11T04:10:41.937Z,352.00
2019-05-11T04:11:41.808Z,360.00
2019-05-11T04:13:33.579Z,412.00
2019-05-11T04:14:33.493Z,440.00
2019-05-11T04:16:26.290Z,508.00
2019-05-11T04:17:26.216Z,560.00
2019-05-11T04:19:19.042Z,676.00
2019-05-11T04:20:18.959Z,720.00
2019-05-11T04:22:11.135Z,804.00
2019-05-11T04:23:10.949Z,852.00
2019-05-11T04:25:02.777Z,936.00
2019-05-11T04:26:02.682Z,980.00
2019-05-11T04:27:55.462Z,1028.00
2019-05-11T04:28:55.417Z,1036.00
2019-05-11T04:30:47.247Z,1052.00
2019-05-11T04:31:47.097Z,1036.00
2019-05-11T04:33:40.017Z,976.00
2019-05-11T04:34:39.932Z,968.00
2019-05-11T04:36:32.726Z,1176.00
2019-05-11T04:37:32.636Z,1272.00
2019-05-11T04:39:25.700Z,1452.00
2019-05-11T04:40:25.413Z,1568.00
2019-05-11T04:42:17.342Z,1828.00
2019-05-11T04:43:17.235Z,1936.00
2019-05-11T04:45:09.370Z,1944.00
2019-05-11T04:46:09.135Z,1844.00
2019-05-11T04:48:02.065Z,1648.00
2019-05-11T04:49:01.964Z,1568.00
2019-05-11T04:50:54.846Z,1500.00
2019-05-11T04:51:54.663Z,1488.00
2019-05-11T04:53:47.463Z,1664.00
2019-05-11T04:54:47.440Z,1876.00
2019-05-11T04:56:39.319Z,2376.00
2019-05-11T04:57:39.222Z,2620.00
2019-05-11T04:59:32.044Z,2900.00
2019-05-11T05:00:32.110Z,2932.00
2019-05-11T05:02:27.172Z,2992.00
2019-05-11T05:03:38.477Z,3036.00
2019-05-11T05:05:16.529Z,3012.00
2019-05-11T05:06:24.609Z,2936.00
2019-05-11T05:08:10.109Z,2696.00
2019-05-11T05:09:09.172Z,2824.00
2019-05-11T05:11:02.382Z,2956.00
2019-05-11T05:12:01.957Z,3704.00
2019-05-11T05:13:54.920Z,4148.00
2019-05-11T05:14:54.654Z,2996.00
2019-05-11T05:16:47.461Z,2556.00
2019-05-11T05:17:47.411Z,2772.00
2019-05-11T05:19:40.208Z,3276.00
2019-05-11T05:20:43.690Z,3564.00
2019-05-11T05:22:32.997Z,3888.00
2019-05-11T05:23:32.873Z,3900.00
2019-05-11T05:25:24.865Z,7288.00
2019-05-11T05:26:24.749Z,5476.00
2019-05-11T05:28:17.584Z,4312.00
2019-05-11T05:29:17.457Z,4232.00
2019-05-11T05:31:10.573Z,4616.00
2019-05-11T05:32:10.226Z,4796.00
2019-05-11T05:34:03.348Z,5604.00
2019-05-11T05:35:03.035Z,10164.00
2019-05-11T05:36:56.680Z,5788.00
2019-05-11T05:37:56.570Z,5320.00
2019-05-11T05:39:49.380Z,5868.00
2019-05-11T05:40:49.325Z,6592.00
2019-05-11T05:42:42.076Z,6236.00
2019-05-11T05:43:41.977Z,6192.00
2019-05-11T05:45:34.832Z,7912.00
2019-05-11T05:46:34.728Z,7328.00
2019-05-11T05:48:27.566Z,8960.00
2019-05-11T05:49:27.529Z,9132.00
2019-05-11T05:51:20.478Z,13144.00
2019-05-11T05:52:20.326Z,11208.00
2019-05-11T05:54:13.225Z,15616.00
2019-05-11T05:55:12.996Z,11024.00
2019-05-11T05:57:05.835Z,8996.00
2019-05-11T05:58:05.781Z,8940.00
2019-05-11T05:59:58.641Z,9412.00
2019-05-11T06:00:58.592Z,11020.00
2019-05-11T06:02:50.534Z,14304.00
2019-05-11T06:03:50.464Z,14560.00
2019-05-11T06:05:43.308Z,17088.00
2019-05-11T06:06:43.269Z,17792.00
2019-05-11T06:08:36.065Z,19872.00
2019-05-11T06:09:35.933Z,20096.00
2019-05-11T06:11:28.741Z,20160.00
2019-05-11T06:12:28.655Z,18880.00
2019-05-11T06:14:21.505Z,18976.00
2019-05-11T06:15:21.415Z,15328.00
2019-05-11T06:17:14.221Z,15552.00
2019-05-11T06:18:14.121Z,16032.00
2019-05-11T06:20:07.770Z,20320.00
2019-05-11T06:21:06.857Z,19168.00
2019-05-11T06:23:00.087Z,18496.00
2019-05-11T06:24:06.075Z,18720.00
2019-05-11T06:25:52.814Z,20416.00
2019-05-11T06:26:52.789Z,19456.00
2019-05-11T06:28:45.564Z,19776.00
2019-05-11T06:29:45.489Z,19744.00
2019-05-11T06:31:38.268Z,19232.00
2019-05-11T06:32:38.210Z,18240.00
2019-05-11T06:34:30.997Z,19456.00
2019-05-11T06:35:31.023Z,20320.00
2019-05-11T06:37:23.749Z,20864.00
2019-05-11T06:38:23.846Z,20960.00
2019-05-11T06:40:16.572Z,21568.00
2019-05-11T06:41:16.503Z,22176.00
2019-05-11T06:43:09.294Z,21504.00
2019-05-11T06:44:09.269Z,22048.00
2019-05-11T06:46:02.444Z,22624.00
2019-05-11T06:47:02.240Z,22464.00
2019-05-11T06:48:55.517Z,21632.00
2019-05-11T06:49:55.473Z,21248.00
2019-05-11T06:51:48.265Z,21472.00
2019-05-11T06:52:48.191Z,21920.00
2019-05-11T06:54:40.973Z,22976.00
2019-05-11T06:55:40.992Z,23552.00
2019-05-11T06:57:33.759Z,23424.00
2019-05-11T06:58:33.946Z,22976.00
2019-05-11T07:00:26.539Z,22656.00
2019-05-11T07:01:26.433Z,22560.00
2019-05-11T07:03:19.411Z,20128.00
2019-05-11T07:04:19.276Z,19840.00
2019-05-11T07:06:11.260Z,20832.00
2019-05-11T07:07:11.167Z,21312.00
2019-05-11T07:09:03.978Z,21920.00
2019-05-11T07:10:03.917Z,20640.00
2019-05-11T07:11:56.843Z,20320.00
2019-05-11T07:12:56.743Z,19808.00
2019-05-11T07:14:49.746Z,19136.00
2019-05-11T07:15:49.463Z,18784.00
2019-05-11T07:17:42.400Z,19040.00
2019-05-11T07:18:42.257Z,18880.00
2019-05-11T07:20:49.531Z,18240.00
2019-05-11T07:21:35.110Z,18720.00
2019-05-11T07:23:27.981Z,19008.00
2019-05-11T07:24:27.940Z,19072.00
2019-05-11T07:26:21.019Z,20384.00
2019-05-11T07:27:20.940Z,20640.00
2019-05-11T07:29:13.767Z,20160.00
2019-05-11T07:30:13.706Z,20896.00
2019-05-11T07:32:19.994Z,21120.00
2019-05-11T07:33:08.109Z,21984.00
2019-05-11T07:34:59.419Z,23584.00
2019-05-11T07:35:59.478Z,24032.00
2019-05-11T07:37:52.216Z,25984.00
2019-05-11T07:38:52.134Z,26752.00
2019-05-11T07:40:47.534Z,26464.00
2019-05-11T07:41:45.008Z,26752.00
2019-05-11T07:43:38.176Z,27200.00
2019-05-11T07:44:41.034Z,26656.00
2019-05-11T07:46:30.609Z,27872.00
2019-05-11T07:47:30.688Z,29184.00
2019-05-11T07:49:23.726Z,29664.00
2019-05-11T07:50:23.357Z,29664.00
2019-05-11T07:52:18.148Z,30080.00
2019-05-11T07:53:18.432Z,29856.00
2019-05-11T07:55:09.205Z,29440.00
2019-05-11T07:56:09.135Z,29536.00
2019-05-11T07:58:02.114Z,28928.00
2019-05-11T07:59:02.014Z,28960.00
2019-05-11T08:00:54.819Z,29728.00
2019-05-11T08:01:54.819Z,29952.00
2019-05-11T08:03:48.401Z,30144.00
2019-05-11T08:04:48.150Z,30240.00
2019-05-11T08:06:40.380Z,30752.00
2019-05-11T08:07:40.305Z,31040.00
2019-05-11T08:09:33.079Z,31072.00
2019-05-11T08:10:33.058Z,30848.00
2019-05-11T08:12:28.285Z,31040.00
2019-05-11T08:13:28.059Z,31104.00
2019-05-11T08:15:18.748Z,31232.00
2019-05-11T08:16:18.753Z,30944.00
2019-05-11T08:18:11.359Z,30240.00
2019-05-11T08:19:11.344Z,30176.00
2019-05-11T08:21:04.161Z,29792.00
2019-05-11T08:22:04.331Z,29696.00
2019-05-11T08:23:58.780Z,29856.00
2019-05-11T08:24:58.600Z,29728.00
2019-05-11T08:26:49.802Z,29696.00
2019-05-11T08:27:49.768Z,29504.00
2019-05-11T08:29:42.527Z,29376.00
2019-05-11T08:30:42.522Z,29216.00
2019-05-11T08:32:34.400Z,29408.00
2019-05-11T08:33:34.354Z,29312.00
2019-05-11T08:35:30.924Z,29824.00
2019-05-11T08:36:28.938Z,29952.00
2019-05-11T08:38:19.966Z,29920.00
2019-05-11T08:39:20.012Z,29856.00
2019-05-11T08:41:12.791Z,29600.00
2019-05-11T08:42:12.700Z,28608.00
2019-05-11T08:44:05.754Z,27712.00
2019-05-11T08:45:19.458Z,29216.00
2019-05-11T08:46:58.195Z,29952.00
2019-05-11T08:47:58.093Z,30048.00
2019-05-11T08:49:50.311Z,29760.00
2019-05-11T08:50:50.245Z,29344.00
2019-05-11T08:52:43.588Z,22496.00
2019-05-11T08:53:43.428Z,22976.00
2019-05-11T08:55:38.153Z,26688.00
2019-05-11T08:56:38.270Z,13120.00
2019-05-11T08:58:29.211Z,26016.00
2019-05-11T08:59:29.167Z,25504.00
2019-05-11T09:01:22.001Z,24768.00
2019-05-11T09:02:21.919Z,25344.00
2019-05-11T09:05:14.873Z,26848.00
2019-05-11T09:07:07.996Z,26304.00
2019-05-11T09:08:08.301Z,25792.00
2019-05-11T09:10:00.518Z,22528.00
2019-05-11T09:11:00.679Z,20800.00
2019-05-11T09:12:53.412Z,24736.00
2019-05-11T09:13:53.242Z,25664.00
2019-05-11T09:15:48.249Z,23104.00
2019-05-11T09:16:48.691Z,17280.00
2019-05-11T09:18:38.939Z,9136.00
2019-05-11T09:19:38.998Z,8400.00
2019-05-11T09:21:31.729Z,20704.00
2019-05-11T09:22:31.649Z,14444.00
2019-05-11T09:24:24.523Z,11248.00
2019-05-11T09:25:24.503Z,9020.00
2019-05-11T09:27:18.453Z,15520.00
2019-05-11T09:28:18.110Z,15008.00
2019-05-11T09:30:10.248Z,16672.00
2019-05-11T09:31:10.153Z,13892.00
2019-05-11T09:33:03.161Z,8752.00
2019-05-11T09:34:03.007Z,14272.00
2019-05-11T09:35:58.305Z,13928.00
2019-05-11T09:36:58.440Z,12840.00
2019-05-11T09:38:49.205Z,11008.00
2019-05-11T09:39:48.837Z,9108.00
2019-05-11T09:41:41.666Z,8340.00
2019-05-11T09:42:41.566Z,9740.00
2019-05-11T09:44:34.476Z,8452.00
2019-05-11T09:45:47.945Z,9972.00
2019-05-11T09:47:27.953Z,9568.00
2019-05-11T09:48:28.386Z,9184.00
2019-05-11T09:50:19.118Z,6980.00
2019-05-11T09:51:19.070Z,6848.00
2019-05-11T09:53:12.103Z,7136.00
2019-05-11T09:54:11.844Z,8508.00
2019-05-11T09:56:07.903Z,6252.00
2019-05-11T09:57:05.632Z,5788.00
2019-05-11T09:58:58.650Z,5612.00
2019-05-11T09:59:58.397Z,5684.00
2019-05-11T10:01:51.288Z,5952.00
2019-05-11T10:02:51.196Z,6016.00
2019-05-11T10:04:43.964Z,6120.00
2019-05-11T10:05:43.900Z,6240.00
2019-05-11T10:07:38.092Z,6512.00
2019-05-11T10:08:38.103Z,6880.00
2019-05-11T10:10:30.174Z,7604.00
2019-05-11T10:11:29.764Z,7416.00
2019-05-11T10:13:22.985Z,7788.00
2019-05-11T10:14:22.878Z,8196.00
2019-05-11T10:16:17.945Z,8128.00
2019-05-11T10:17:15.571Z,7928.00
2019-05-11T10:19:08.695Z,6752.00
2019-05-11T10:20:09.173Z,6596.00
2019-05-11T10:22:01.241Z,6364.00
2019-05-11T10:23:01.143Z,6576.00
2019-05-11T10:24:53.113Z,6184.00
2019-05-11T10:25:53.068Z,5872.00
2019-05-11T10:27:45.874Z,4924.00
2019-05-11T10:28:47.947Z,4640.00
2019-05-11T10:30:38.894Z,4512.00
2019-05-11T10:31:38.787Z,4640.00
2019-05-11T10:33:33.315Z,4884.00
2019-05-11T10:34:33.092Z,4832.00
2019-05-11T10:36:27.995Z,4576.00
2019-05-11T10:37:28.131Z,4400.00
2019-05-11T10:39:18.884Z,4172.00
2019-05-11T10:40:19.145Z,4152.00
2019-05-11T10:42:12.637Z,4168.00
2019-05-11T10:43:12.433Z,4192.00
2019-05-11T10:45:05.544Z,4228.00
2019-05-11T10:46:17.047Z,4252.00
2019-05-11T10:48:00.970Z,4188.00
2019-05-11T10:48:58.749Z,4112.00
2019-05-11T10:50:50.971Z,4068.00
2019-05-11T10:51:50.830Z,4104.00
2019-05-11T10:53:43.839Z,4168.00
2019-05-11T10:54:43.741Z,4188.00
2019-05-11T10:56:38.696Z,4080.00
2019-05-11T10:57:38.651Z,3992.00
2019-05-11T10:59:29.516Z,3856.00
2019-05-11T11:00:29.355Z,3732.00
2019-05-11T11:02:22.320Z,3544.00
2019-05-11T11:03:22.199Z,3540.00
2019-05-11T11:05:14.996Z,3700.00
2019-05-11T11:06:14.871Z,3852.00
2019-05-11T11:08:08.301Z,4092.00
2019-05-11T11:09:08.252Z,4168.00
2019-05-11T11:10:59.597Z,4196.00
2019-05-11T11:11:59.528Z,4156.00
2019-05-11T11:13:52.819Z,4132.00
2019-05-11T11:14:52.630Z,4152.00
2019-05-11T11:16:47.644Z,4260.00
2019-05-11T11:17:45.399Z,4324.00
2019-05-11T11:19:38.450Z,4344.00
2019-05-11T11:20:38.550Z,4372.00
2019-05-11T11:22:39.842Z,4496.00
2019-05-11T11:23:30.932Z,4596.00
2019-05-11T11:25:23.019Z,4784.00
2019-05-11T11:26:22.847Z,4864.00
2019-05-11T11:28:17.560Z,4940.00
2019-05-11T11:29:17.918Z,4940.00
2019-05-11T11:31:08.845Z,4956.00
2019-05-11T11:32:08.783Z,4892.00
2019-05-11T11:34:01.516Z,4940.00
2019-05-11T11:35:01.525Z,4928.00
2019-05-11T11:36:54.290Z,4980.00
2019-05-11T11:37:54.208Z,5016.00
2019-05-11T11:39:47.622Z,5092.00
2019-05-11T11:40:48.192Z,5116.00
2019-05-11T11:42:38.896Z,5140.00
2019-05-11T11:43:38.689Z,5116.00
2019-05-11T11:45:30.673Z,4996.00
2019-05-11T11:46:30.442Z,4944.00
2019-05-11T11:48:22.819Z,4948.00
2019-05-11T11:49:22.483Z,4952.00
2019-05-11T11:51:15.336Z,4920.00
2019-05-11T11:52:15.235Z,4876.00
2019-05-11T11:54:08.767Z,4768.00
2019-05-11T11:55:08.358Z,4776.00
2019-05-11T11:56:59.935Z,4836.00
2019-05-11T11:57:59.842Z,4828.00
2019-05-11T11:59:52.799Z,4784.00
2019-05-11T12:00:52.697Z,4764.00
2019-05-11T12:02:45.662Z,4764.00
2019-05-11T12:03:45.615Z,4792.00
2019-05-11T12:05:38.726Z,4880.00
2019-05-11T12:06:38.544Z,4964.00
2019-05-11T12:08:31.170Z,5020.00
2019-05-11T12:09:31.105Z,5012.00
2019-05-11T12:11:23.986Z,5020.00
2019-05-11T12:12:23.902Z,5028.00
2019-05-11T12:14:18.615Z,4948.00
2019-05-11T12:15:17.754Z,4876.00
2019-05-11T12:17:11.171Z,4776.00
2019-05-11T12:18:09.439Z,4772.00
2019-05-11T12:20:02.248Z,4760.00
2019-05-11T12:21:02.152Z,4720.00
2019-05-11T12:22:54.154Z,4604.00
2019-05-11T12:23:54.137Z,4540.00
2019-05-11T12:25:48.610Z,4460.00
2019-05-11T12:26:48.051Z,4432.00
2019-05-11T12:28:39.836Z,4308.00
2019-05-11T12:29:39.763Z,4188.00
2019-05-11T12:31:32.761Z,3980.00
2019-05-11T12:32:32.484Z,3880.00
2019-05-11T12:34:25.287Z,3736.00
2019-05-11T12:35:25.218Z,3676.00
2019-05-11T12:37:18.096Z,3528.00
2019-05-11T12:38:18.452Z,3452.00
2019-05-11T12:40:10.803Z,3296.00
2019-05-11T12:41:10.757Z,3256.00
2019-05-11T12:43:03.730Z,3232.00
2019-05-11T12:44:03.725Z,3196.00
2019-05-11T12:45:58.587Z,3072.00
2019-05-11T12:46:58.382Z,2972.00
2019-05-11T12:48:49.299Z,2688.00
2019-05-11T12:49:49.198Z,2512.00
2019-05-11T12:51:42.039Z,2200.00
2019-05-11T12:52:42.003Z,2064.00
2019-05-11T12:54:34.814Z,1936.00
2019-05-11T12:55:34.770Z,1924.00
2019-05-11T12:57:28.257Z,2004.00
2019-05-11T12:58:28.119Z,2060.00
2019-05-11T13:00:20.684Z,2116.00
2019-05-11T13:01:20.471Z,2128.00
2019-05-11T13:03:12.273Z,2176.00
2019-05-11T13:04:12.157Z,2216.00
2019-05-11T13:06:05.189Z,2284.00
2019-05-11T13:07:05.076Z,2316.00
2019-05-11T13:08:58.788Z,2324.00
2019-05-11T13:09:58.099Z,2328.00
2019-05-11T13:11:50.641Z,2308.00
2019-05-11T13:12:50.556Z,2264.00
2019-05-11T13:14:43.526Z,2216.00
2019-05-11T13:15:43.451Z,2196.00
2019-05-11T13:17:38.407Z,2152.00
2019-05-11T13:18:38.269Z,2172.00
2019-05-11T13:20:28.734Z,2276.00
2019-05-11T13:21:28.652Z,2308.00
2019-05-11T13:23:20.257Z,2348.00
2019-05-11T13:24:19.968Z,2416.00
2019-05-11T13:26:13.492Z,2576.00
2019-05-11T13:27:12.685Z,2696.00
2019-05-11T13:29:07.561Z,2844.00
2019-05-11T13:30:07.844Z,2860.00
2019-05-11T13:31:59.047Z,2908.00
2019-05-11T13:32:58.423Z,2908.00
2019-05-11T13:34:51.293Z,2928.00
2019-05-11T13:35:51.262Z,2988.00
2019-05-11T13:37:44.095Z,3188.00
2019-05-11T13:38:43.965Z,3288.00
2019-05-11T13:40:38.265Z,3360.00
2019-05-11T13:41:38.293Z,3320.00
2019-05-11T13:43:29.591Z,3192.00
2019-05-11T13:44:29.481Z,3116.00
2019-05-11T13:46:22.495Z,2964.00
2019-05-11T13:47:22.270Z,2856.00
2019-05-11T13:49:15.132Z,2592.00
2019-05-11T13:50:15.066Z,2484.00
2019-05-11T13:52:08.565Z,2368.00
2019-05-11T13:53:07.725Z,2352.00
2019-05-11T13:54:59.750Z,2376.00
2019-05-11T13:55:59.674Z,2372.00
2019-05-11T13:57:52.505Z,2272.00
2019-05-11T13:58:52.407Z,2256.00
2019-05-11T14:00:45.401Z,2352.00
2019-05-11T14:01:47.583Z,2400.00
2019-05-11T14:03:37.798Z,2548.00
2019-05-11T14:04:38.642Z,2620.00
2019-05-11T14:06:30.074Z,2720.00
2019-05-11T14:07:29.997Z,2732.00
2019-05-11T14:09:22.837Z,2684.00
2019-05-11T14:10:22.745Z,2644.00
2019-05-11T14:12:18.031Z,2552.00
2019-05-11T14:13:17.554Z,2496.00
2019-05-11T14:15:08.725Z,2432.00
2019-05-11T14:16:08.316Z,2424.00
2019-05-11T14:18:07.858Z,2448.00
2019-05-11T14:19:01.072Z,2472.00
2019-05-11T14:20:53.862Z,2524.00
2019-05-11T14:21:53.837Z,2552.00
2019-05-11T14:23:48.311Z,2612.00
2019-05-11T14:24:48.231Z,2644.00
2019-05-11T14:26:40.786Z,2664.00
2019-05-11T14:27:40.400Z,2660.00
2019-05-11T14:29:33.310Z,2632.00
2019-05-11T14:30:33.258Z,2576.00
2019-05-11T14:32:27.854Z,2372.00
2019-05-11T14:33:27.869Z,2232.00
2019-05-11T14:35:19.139Z,1824.00
2019-05-11T14:36:18.922Z,1620.00
2019-05-11T14:38:11.833Z,1452.00
2019-05-11T14:39:11.777Z,1484.00
2019-05-11T14:41:04.521Z,1608.00
2019-05-11T14:42:04.537Z,1696.00
2019-05-11T14:43:57.991Z,1824.00
2019-05-11T14:44:59.028Z,1884.00
2019-05-11T14:46:50.051Z,1920.00
2019-05-11T14:47:49.987Z,1908.00
2019-05-11T14:49:42.803Z,1852.00
2019-05-11T14:50:42.735Z,1800.00
2019-05-11T14:52:38.189Z,1676.00
2019-05-11T14:53:37.845Z,1608.00
2019-05-11T14:55:29.822Z,1516.00
2019-05-11T14:56:29.621Z,1480.00
2019-05-11T14:58:22.520Z,1420.00
2019-05-11T14:59:22.444Z,1372.00
2019-05-11T15:01:15.312Z,1248.00
2019-05-11T15:02:15.258Z,1200.00
2019-05-11T15:04:09.062Z,1204.00
2019-05-11T15:05:08.796Z,1212.00
2019-05-11T15:07:01.000Z,1260.00
2019-05-11T15:08:00.947Z,1312.00
2019-05-11T15:09:53.770Z,1360.00
2019-05-11T15:10:53.687Z,1360.00
2019-05-11T15:12:48.638Z,1380.00
2019-05-11T15:13:48.581Z,1388.00
2019-05-11T15:15:39.558Z,1408.00
2019-05-11T15:16:39.117Z,1472.00
2019-05-11T15:18:38.141Z,1496.00
2019-05-11T15:19:31.955Z,1296.00
2019-05-11T15:21:24.791Z,1136.00
2019-05-11T15:22:24.800Z,1032.00
2019-05-11T15:24:18.457Z,904.00
2019-05-11T15:25:19.405Z,844.00
2019-05-11T15:27:10.454Z,840.00
2019-05-11T15:28:10.319Z,916.00
2019-05-11T15:30:03.319Z,1148.00
2019-05-11T15:31:03.157Z,1284.00
2019-05-11T15:32:58.053Z,1464.00
2019-05-11T15:33:57.730Z,1496.00
2019-05-11T15:35:48.849Z,1404.00
2019-05-11T15:36:49.184Z,1328.00
2019-05-11T15:38:41.453Z,1144.00
2019-05-11T15:39:41.448Z,1012.00
2019-05-11T15:41:34.327Z,848.00
2019-05-11T15:42:34.219Z,768.00
2019-05-11T15:44:28.557Z,640.00
2019-05-11T15:45:27.721Z,592.00
2019-05-11T15:47:19.792Z,548.00
2019-05-11T15:48:19.768Z,536.00
2019-05-11T15:50:12.589Z,556.00
2019-05-11T15:51:12.506Z,576.00
2019-05-11T15:53:05.413Z,612.00
2019-05-11T15:54:07.429Z,616.00
2019-05-11T15:55:59.862Z,684.00
2019-05-11T15:56:59.912Z,728.00
2019-05-11T15:58:51.090Z,748.00
2019-05-11T15:59:50.996Z,652.00
2019-05-11T16:01:44.174Z,556.00
2019-05-11T16:02:43.758Z,516.00
2019-05-11T16:04:38.173Z,532.00
2019-05-11T16:05:36.588Z,536.00
2019-05-11T16:07:29.537Z,536.00
2019-05-11T16:08:29.381Z,532.00
2019-05-11T16:10:22.256Z,492.00
2019-05-11T16:11:22.537Z,392.00
2019-05-11T16:13:15.012Z,456.00
2019-05-11T16:14:14.924Z,420.00
2019-05-11T16:16:08.077Z,416.00
2019-05-11T16:17:08.750Z,408.00
2019-05-11T16:19:10.608Z,500.00
2019-05-11T16:20:00.914Z,568.00
2019-05-11T16:21:53.801Z,656.00
2019-05-11T16:22:53.685Z,720.00
2019-05-11T16:24:48.512Z,848.00
2019-05-11T16:25:48.918Z,904.00
2019-05-11T16:27:39.433Z,948.00
2019-05-11T16:28:39.387Z,968.00
2019-05-11T16:30:32.176Z,980.00
2019-05-11T16:31:32.097Z,968.00
2019-05-11T16:33:25.055Z,956.00
2019-05-11T16:34:24.942Z,948.00
2019-05-11T16:36:18.184Z,948.00
2019-05-11T16:37:18.346Z,972.00
2019-05-11T16:39:10.686Z,1056.00
2019-05-11T16:40:10.426Z,1104.00
2019-05-11T16:42:03.462Z,1208.00
2019-05-11T16:43:03.243Z,1268.00
2019-05-11T16:44:57.720Z,1348.00
2019-05-11T16:45:57.989Z,1364.00
2019-05-11T16:47:49.280Z,1344.00
2019-05-11T16:48:48.964Z,1320.00
2019-05-11T16:50:41.844Z,1228.00
2019-05-11T16:51:41.819Z,1156.00
2019-05-11T16:53:35.381Z,1008.00
2019-05-11T16:54:34.411Z,968.00
2019-05-11T16:56:27.276Z,996.00
2019-05-11T16:57:27.200Z,1060.00
2019-05-11T16:59:20.234Z,1164.00
2019-05-11T17:00:19.918Z,1228.00
2019-05-11T17:02:12.735Z,1204.00
2019-05-11T17:03:12.696Z,1128.00
2019-05-11T17:05:07.695Z,932.00
2019-05-11T17:06:08.073Z,840.00
2019-05-11T17:07:58.927Z,760.00
2019-05-11T17:08:58.722Z,744.00
2019-05-11T17:10:53.306Z,720.00
2019-05-11T17:11:51.620Z,700.00
2019-05-11T17:13:48.168Z,676.00
2019-05-11T17:14:45.280Z,668.00
2019-05-11T17:16:38.788Z,656.00
2019-05-11T17:17:38.120Z,644.00
2019-05-11T17:19:42.941Z,608.00
2019-05-11T17:20:30.842Z,584.00
2019-05-11T17:22:23.712Z,532.00
2019-05-11T17:23:23.641Z,504.00
2019-05-11T17:25:18.863Z,476.00
2019-05-11T17:26:18.816Z,472.00
2019-05-11T17:28:10.095Z,468.00
2019-05-11T17:29:10.093Z,472.00
2019-05-11T17:31:02.995Z,476.00
2019-05-11T17:32:01.954Z,476.00
2019-05-11T17:33:54.734Z,468.00
2019-05-11T17:34:54.687Z,464.00
2019-05-11T17:36:47.624Z,472.00
2019-05-11T17:37:48.530Z,472.00
2019-05-11T17:39:40.167Z,448.00
2019-05-11T17:40:40.115Z,436.00
2019-05-11T17:42:32.891Z,384.00
2019-05-11T17:43:32.904Z,340.00